Weather reports worldwide

Advertisment
Weddell Island, United Kingdom (88883): temperature & dewpoint: 18.04.2019 04:00:00 - 24.04.2019 04:00:00 (FKST)Weddell Island, United Kingdom (88883): wind speed & gusts: 18.04.2019 04:00:00 - 24.04.2019 04:00:00 (FKST)Weddell Island, United Kingdom (88883): wind direction: 18.04.2019 04:00:00 - 24.04.2019 04:00:00 (FKST)Weddell Island, United Kingdom (88883): reduced air pressure: 18.04.2019 04:00:00 - 24.04.2019 04:00:00 (FKST)
Date & Time tt [°C] td [°C] ff [km/h] ff [kn] fx [km/h] fx [kn] dd ppp [hPa]
24.04.2019 04:00:00 - - - - - - - -
24.04.2019 03:00:00 3,8 2,2 9 5 - - NW 1017,3
24.04.2019 02:00:00 2,8 1,4 15 8 - - W 1017,0
24.04.2019 01:00:00 1,7 -0,3 8 4 - - W 1016,7
24.04.2019 00:00:00 5,0 3,3 4 2 - - WNW 1016,7
23.04.2019 23:00:00 4,5 2,8 9 5 - - WSW 1016,7
23.04.2019 22:00:00 5,4 3,3 4 2 - - SW 1017,0
23.04.2019 21:00:00 5,5 3,5 13 7 - - SW 1016,8
23.04.2019 20:00:00 4,2 2,4 11 6 - - SSW 1016,3
23.04.2019 19:00:00 4,2 2,2 11 6 - - SSW 1015,6
23.04.2019 18:00:00 4,9 2,3 13 7 - - S 1014,9
23.04.2019 17:00:00 5,7 3,1 22 12 - - S 1014,3
23.04.2019 16:00:00 5,8 3,3 26 14 - - S 1013,6
23.04.2019 15:00:00 5,9 3,8 24 13 - - S 1013,2
23.04.2019 14:00:00 6,5 5,1 22 12 - - S 1013,1
23.04.2019 13:00:00 6,2 5,0 24 13 - - S 1012,8
23.04.2019 12:00:00 5,8 4,8 24 13 - - S 1012,6
23.04.2019 11:00:00 5,7 4,8 28 15 - - S 1012,2
23.04.2019 10:00:00 6,2 5,6 24 13 - - S 1011,8
23.04.2019 09:00:00 6,5 5,8 5 3 - - SSE 1011,4
23.04.2019 08:00:00 6,1 5,3 0 0 - - S 1011,1
23.04.2019 07:00:00 6,4 5,6 4 2 - - WSW 1011,0
23.04.2019 06:00:00 6,4 5,4 2 1 - - SW 1010,7
23.04.2019 05:00:00 6,7 5,5 2 1 - - SSW 1010,6
23.04.2019 04:00:00 5,8 4,9 8 4 - - WSW 1010,9
23.04.2019 03:00:00 6,1 5,0 8 4 - - WNW 1011,3
23.04.2019 02:00:00 6,7 5,6 9 5 - - WNW 1011,4
23.04.2019 01:00:00 - - - - - - - -
23.04.2019 00:00:00 6,7 5,7 13 7 - - NW 1011,5
22.04.2019 23:00:00 - - - - - - - -
22.04.2019 22:00:00 6,1 5,0 15 8 - - NW 1011,7
22.04.2019 21:00:00 6,6 5,5 15 8 - - NW 1011,7
22.04.2019 20:00:00 6,5 5,5 13 7 - - NW 1011,7
22.04.2019 19:00:00 6,7 5,6 11 6 - - NNW 1011,6
22.04.2019 18:00:00 6,4 4,9 13 7 - - NW 1011,5
22.04.2019 17:00:00 7,0 5,1 16 9 - - NW 1011,5
22.04.2019 16:00:00 7,7 5,8 18 10 - - NW 1011,5
22.04.2019 15:00:00 8,4 6,2 15 8 - - WNW 1011,8
22.04.2019 14:00:00 7,6 6,3 16 9 - - NW 1012,1
22.04.2019 13:00:00 7,2 6,4 15 8 - - NW 1012,3
22.04.2019 12:00:00 7,4 6,6 15 8 - - NW 1012,1
22.04.2019 11:00:00 7,1 6,2 16 9 - - N 1012,0
22.04.2019 10:00:00 5,9 5,0 13 7 - - NNW 1012,5
22.04.2019 09:00:00 4,9 4,1 13 7 - - NW 1012,0
22.04.2019 08:00:00 3,8 3,0 9 5 - - W 1012,2
22.04.2019 07:00:00 5,3 4,5 9 5 - - W 1011,8
22.04.2019 06:00:00 4,6 3,7 11 6 - - WSW 1011,3
22.04.2019 05:00:00 5,2 4,2 9 5 - - WSW 1011,3
22.04.2019 04:00:00 4,2 2,8 11 6 - - W 1011,2
22.04.2019 03:00:00 4,8 3,5 16 9 - - W 1011,5
22.04.2019 02:00:00 4,4 3,1 9 5 - - SW 1011,4
22.04.2019 01:00:00 4,5 3,1 9 5 - - WSW 1011,1
22.04.2019 00:00:00 4,5 3,0 9 5 - - SSW 1011,0
21.04.2019 23:00:00 4,2 2,8 11 6 - - SSW 1010,8
21.04.2019 22:00:00 3,6 2,4 8 4 - - SSW 1010,3
21.04.2019 21:00:00 4,0 3,0 11 6 - - SSW 1010,1
21.04.2019 20:00:00 4,3 3,5 13 7 - - SSW 1009,7
21.04.2019 19:00:00 4,1 3,4 11 6 - - SSW 1009,2
21.04.2019 18:00:00 4,4 3,6 13 7 - - S 1008,7
21.04.2019 17:00:00 5,2 4,2 15 8 - - S 1008,4
21.04.2019 16:00:00 5,5 4,4 13 7 - - SSW 1008,3
21.04.2019 15:00:00 5,8 4,3 15 8 - - SSW 1008,2
21.04.2019 14:00:00 5,9 3,9 21 11 - - SW 1008,1
21.04.2019 13:00:00 5,6 3,8 22 12 - - SW 1008,2
21.04.2019 12:00:00 5,1 3,3 22 12 - - SW 1008,2
21.04.2019 11:00:00 5,0 3,0 26 14 - - SW 1007,9
21.04.2019 10:00:00 4,8 1,9 16 9 - - SW 1007,9
21.04.2019 09:00:00 4,0 1,5 21 11 - - SSW 1007,8
21.04.2019 08:00:00 3,6 1,5 21 11 - - SSW 1007,6
21.04.2019 07:00:00 3,9 1,6 22 12 - - SW 1007,7
21.04.2019 06:00:00 3,7 1,4 26 14 - - SSW 1007,3
21.04.2019 05:00:00 4,2 0,3 16 9 - - SW 1006,7
21.04.2019 04:00:00 4,3 -0,1 22 12 - - SW 1006,7
21.04.2019 03:00:00 3,9 -0,6 24 13 - - SSW 1006,9
21.04.2019 02:00:00 3,7 -1,8 28 15 - - SSW 1006,5
21.04.2019 01:00:00 3,9 -1,7 26 14 - - SSW 1006,1
21.04.2019 00:00:00 4,1 -0,4 24 13 - - SSW 1005,9
20.04.2019 23:00:00 4,0 -1,4 26 14 - - SSW 1005,4
20.04.2019 22:00:00 4,1 -1,6 24 13 - - SSW 1004,9
20.04.2019 21:00:00 4,1 0,0 29 16 46 25 SSW 1004,4
20.04.2019 20:00:00 4,0 -0,9 28 15 - - SSW 1003,6
20.04.2019 19:00:00 3,5 -1,0 29 16 - - SSW 1002,8
20.04.2019 18:00:00 3,6 0,7 29 16 - - S 1001,9
20.04.2019 17:00:00 4,7 1,9 35 19 61 33 SSW 1000,4
20.04.2019 16:00:00 5,7 1,8 39 21 54 29 SSW 998,7
20.04.2019 15:00:00 7,1 3,9 31 17 54 29 SSW 997,6
20.04.2019 14:00:00 7,5 4,8 41 22 57 31 SW 996,6
20.04.2019 13:00:00 9,2 7,1 37 20 54 29 WSW 995,9
20.04.2019 12:00:00 7,9 6,2 31 17 50 27 WSW 995,5
20.04.2019 11:00:00 7,2 5,5 31 17 - - WSW 995,9
20.04.2019 10:00:00 6,4 5,4 18 10 - - W 996,6
20.04.2019 09:00:00 5,7 4,3 4 2 - - WNW 997,4
20.04.2019 08:00:00 5,3 3,6 13 7 - - SSW 997,9
20.04.2019 07:00:00 5,5 3,7 11 6 - - SSW 998,5
20.04.2019 06:00:00 6,3 4,4 18 10 - - SSW 998,9
20.04.2019 05:00:00 6,6 5,3 18 10 - - SSW 998,7
20.04.2019 04:00:00 7,0 5,7 22 12 - - WSW 999,5
20.04.2019 03:00:00 7,0 5,6 28 15 - - W 1000,5
20.04.2019 02:00:00 7,2 5,7 24 13 - - W 1001,0
20.04.2019 01:00:00 6,0 4,1 15 8 - - W 1002,2
20.04.2019 00:00:00 6,3 4,1 18 10 - - W 1002,6
19.04.2019 23:00:00 6,0 3,4 11 6 - - WSW 1002,4
19.04.2019 22:00:00 5,6 3,4 18 10 - - WSW 1003,1
19.04.2019 21:00:00 6,2 3,9 28 15 - - SW 1003,4
19.04.2019 20:00:00 5,3 3,0 26 14 - - SW 1002,8
19.04.2019 19:00:00 5,4 2,1 21 11 - - SW 1002,5
19.04.2019 18:00:00 3,7 -0,2 9 5 - - W 1002,2
19.04.2019 17:00:00 6,0 1,3 15 8 - - SW 1001,6
19.04.2019 16:00:00 6,6 1,2 16 9 - - WSW 1000,9
19.04.2019 15:00:00 6,8 1,1 16 9 - - WSW 1000,6
19.04.2019 14:00:00 5,8 0,8 15 8 - - WSW 1000,1
19.04.2019 13:00:00 5,8 0,6 13 7 - - SW 1000,1
19.04.2019 12:00:00 6,1 0,9 13 7 - - SSW 999,6
19.04.2019 11:00:00 4,6 0,4 9 5 - - WSW 999,5
19.04.2019 10:00:00 4,6 1,0 9 5 - - WSW 999,2
19.04.2019 09:00:00 2,0 -1,4 11 6 - - SW 998,8
19.04.2019 08:00:00 1,4 -2,9 13 7 - - SW 998,7
19.04.2019 07:00:00 1,8 -2,0 15 8 - - WSW 998,6
19.04.2019 06:00:00 2,1 -0,9 15 8 - - WSW 998,5
19.04.2019 05:00:00 1,1 -1,1 9 5 - - SW 998,4
19.04.2019 04:00:00 1,7 -0,9 16 9 - - SW 998,3
19.04.2019 03:00:00 0,9 -1,3 16 9 - - SW 998,4
19.04.2019 02:00:00 1,5 -2,3 21 11 - - SW 998,2
19.04.2019 01:00:00 1,8 -1,6 16 9 - - SW 997,9
19.04.2019 00:00:00 1,4 -1,0 15 8 - - SW 997,7
18.04.2019 23:00:00 1,8 -1,8 15 8 - - SW 997,5
18.04.2019 22:00:00 1,2 -3,3 16 9 - - SW 997,1
18.04.2019 21:00:00 1,2 -4,6 18 10 - - SW 996,6
18.04.2019 20:00:00 2,1 -3,3 24 13 - - SSW 995,9
18.04.2019 19:00:00 1,7 -0,9 22 12 - - SSW 994,8
18.04.2019 18:00:00 2,2 -4,6 24 13 - - SSW 993,8
18.04.2019 17:00:00 3,5 -2,9 26 14 - - SSW 992,2
18.04.2019 16:00:00 4,3 -2,7 31 17 48 26 SSW 990,4
18.04.2019 15:00:00 3,5 -1,8 35 19 52 28 SSW 988,9
18.04.2019 14:00:00 4,6 0,1 31 17 54 29 SSW 988,0
18.04.2019 13:00:00 3,6 -1,0 42 23 61 33 SSW 987,1
18.04.2019 12:00:00 3,6 0,4 31 17 46 25 SSW 985,9
18.04.2019 11:00:00 4,7 1,1 37 20 50 27 SW 984,4
18.04.2019 10:00:00 4,4 1,3 42 23 61 33 SSW 983,6
18.04.2019 09:00:00 5,2 3,2 44 24 61 33 SW 982,6
18.04.2019 08:00:00 6,0 4,4 34 18 57 31 WSW 982,4
18.04.2019 07:00:00 6,5 4,7 41 22 59 32 W 982,9
18.04.2019 06:00:00 6,4 4,7 44 24 70 38 W 983,4
18.04.2019 05:00:00 6,0 4,3 54 29 85 46 W 984,4
18.04.2019 04:00:00 6,0 4,0 52 28 83 45 W 985,4

tt = temperature
td = dewpoint
ff = wind speed
fx = gusts
dd = wind direction
ppp = reduced air pressure

Next stations